createdAt,value
2023-10-17T00:00:43.990Z,428.00
2023-10-17T00:01:39.018Z,430.00
2023-10-17T00:02:34.066Z,429.00
2023-10-17T00:03:29.186Z,432.00
2023-10-17T00:04:24.404Z,432.00
2023-10-17T00:05:19.402Z,422.00
2023-10-17T00:06:14.384Z,419.00
2023-10-17T00:07:09.241Z,423.00
2023-10-17T00:08:04.326Z,426.00
2023-10-17T00:08:59.329Z,421.00
2023-10-17T00:09:54.407Z,424.00
2023-10-17T00:10:49.420Z,423.00
2023-10-17T00:11:44.608Z,422.00
2023-10-17T00:12:39.864Z,414.00
2023-10-17T00:13:34.928Z,426.00
2023-10-17T00:14:30.246Z,426.00
2023-10-17T00:15:25.359Z,422.00
2023-10-17T00:16:20.435Z,420.00
2023-10-17T00:17:15.601Z,423.00
2023-10-17T00:18:10.852Z,419.00
2023-10-17T00:19:06.017Z,426.00
2023-10-17T00:20:01.157Z,423.00
2023-10-17T00:20:55.994Z,418.00
2023-10-17T00:21:51.002Z,422.00
2023-10-17T00:22:46.052Z,421.00
2023-10-17T00:23:41.058Z,419.00
2023-10-17T00:24:36.446Z,419.00
2023-10-17T00:25:31.177Z,419.00
2023-10-17T00:26:26.226Z,423.00
2023-10-17T00:27:21.252Z,425.00
2023-10-17T00:28:16.309Z,421.00
2023-10-17T00:29:11.398Z,425.00
2023-10-17T00:30:06.642Z,421.00
2023-10-17T00:31:01.522Z,420.00
2023-10-17T00:31:56.554Z,424.00
2023-10-17T00:32:51.601Z,426.00
2023-10-17T00:33:46.672Z,424.00
2023-10-17T00:34:41.700Z,422.00
2023-10-17T00:35:36.775Z,426.00
2023-10-17T00:36:31.774Z,427.00
2023-10-17T00:37:26.861Z,428.00
2023-10-17T00:38:21.987Z,424.00
2023-10-17T00:39:17.323Z,425.00
2023-10-17T00:40:12.546Z,425.00
2023-10-17T00:41:08.850Z,424.00
2023-10-17T00:42:02.763Z,422.00
2023-10-17T00:42:57.927Z,419.00
2023-10-17T00:43:53.091Z,415.00
2023-10-17T00:44:49.159Z,415.00
2023-10-17T00:45:44.456Z,419.00
2023-10-17T00:46:39.775Z,421.00
2023-10-17T00:47:35.805Z,421.00
2023-10-17T00:48:31.109Z,422.00
2023-10-17T00:49:26.746Z,421.00
2023-10-17T00:50:21.937Z,426.00
2023-10-17T00:51:17.257Z,429.00
2023-10-17T00:52:13.006Z,427.00
2023-10-17T00:53:08.240Z,422.00
2023-10-17T00:54:04.105Z,426.00
2023-10-17T00:54:59.249Z,420.00
2023-10-17T00:55:54.587Z,423.00
2023-10-17T00:56:50.291Z,426.00
2023-10-17T00:57:45.490Z,416.00
2023-10-17T00:58:40.658Z,426.00
2023-10-17T00:59:37.074Z,424.00
2023-10-17T01:00:32.479Z,424.00
2023-10-17T01:01:28.209Z,433.00
2023-10-17T01:02:23.371Z,422.00
2023-10-17T01:03:18.496Z,432.00
2023-10-17T01:04:14.207Z,428.00
2023-10-17T01:05:09.435Z,428.00
2023-10-17T01:06:05.205Z,425.00
2023-10-17T01:07:00.365Z,421.00
2023-10-17T01:07:55.614Z,421.00
2023-10-17T01:08:51.506Z,416.00
2023-10-17T01:09:46.699Z,409.00
2023-10-17T01:10:42.016Z,418.00
2023-10-17T01:11:38.309Z,419.00
2023-10-17T01:12:33.516Z,429.00
2023-10-17T01:13:29.218Z,419.00
2023-10-17T01:14:24.471Z,418.00
2023-10-17T01:15:19.630Z,422.00
2023-10-17T01:16:15.394Z,425.00
2023-10-17T01:17:10.531Z,421.00
2023-10-17T01:18:06.685Z,420.00
2023-10-17T01:19:01.582Z,421.00
2023-10-17T01:19:56.788Z,415.00
2023-10-17T01:20:52.681Z,419.00
2023-10-17T01:21:47.745Z,418.00
2023-10-17T01:22:43.088Z,418.00
2023-10-17T01:23:39.323Z,422.00
2023-10-17T01:24:34.572Z,422.00
2023-10-17T01:25:30.356Z,420.00
2023-10-17T01:26:25.768Z,421.00
2023-10-17T01:27:21.022Z,425.00
2023-10-17T01:28:16.628Z,425.00
2023-10-17T01:29:11.825Z,427.00
2023-10-17T01:30:07.592Z,423.00
2023-10-17T01:31:02.809Z,422.00
2023-10-17T01:31:58.001Z,426.00
2023-10-17T01:32:53.832Z,430.00
2023-10-17T01:33:48.895Z,426.00
2023-10-17T01:34:44.059Z,433.00
2023-10-17T01:35:40.338Z,436.00
2023-10-17T01:36:35.426Z,428.00
2023-10-17T01:37:31.130Z,430.00
2023-10-17T01:38:26.292Z,424.00
2023-10-17T01:39:21.407Z,434.00
2023-10-17T01:40:17.121Z,427.00
2023-10-17T01:41:12.339Z,434.00
2023-10-17T01:42:08.237Z,429.00
2023-10-17T01:43:03.420Z,428.00
2023-10-17T01:43:58.615Z,435.00
2023-10-17T01:44:53.752Z,439.00
2023-10-17T01:45:49.147Z,441.00
2023-10-17T01:46:44.768Z,439.00
2023-10-17T01:47:39.958Z,437.00
2023-10-17T01:48:35.051Z,431.00
2023-10-17T01:49:30.911Z,444.00
2023-10-17T01:50:26.221Z,439.00
2023-10-17T01:51:21.978Z,431.00
2023-10-17T01:52:17.094Z,434.00
2023-10-17T01:53:12.438Z,441.00
2023-10-17T01:54:08.291Z,431.00
2023-10-17T01:55:03.531Z,431.00
2023-10-17T01:55:58.667Z,428.00
2023-10-17T01:56:55.016Z,429.00
2023-10-17T01:57:50.135Z,431.00
2023-10-17T01:58:46.000Z,426.00
2023-10-17T01:59:41.161Z,435.00
2023-10-17T02:00:36.596Z,429.00
2023-10-17T02:01:31.701Z,427.00
2023-10-17T02:02:26.585Z,426.00
2023-10-17T02:03:21.600Z,430.00
2023-10-17T02:04:16.696Z,426.00
2023-10-17T02:05:11.739Z,427.00
2023-10-17T02:06:06.915Z,422.00
2023-10-17T02:07:01.742Z,420.00
2023-10-17T02:07:56.832Z,424.00
2023-10-17T02:08:51.825Z,427.00
2023-10-17T02:09:46.895Z,426.00
2023-10-17T02:10:45.354Z,430.00
2023-10-17T02:11:40.257Z,425.00
2023-10-17T02:12:35.313Z,423.00
2023-10-17T02:13:30.357Z,419.00
2023-10-17T02:14:25.491Z,420.00
2023-10-17T02:15:20.519Z,425.00
2023-10-17T02:16:15.497Z,424.00
2023-10-17T02:17:10.550Z,420.00
2023-10-17T02:18:05.910Z,414.00
2023-10-17T02:19:01.058Z,419.00
2023-10-17T02:19:56.352Z,416.00
2023-10-17T02:20:51.616Z,422.00
2023-10-17T02:21:46.517Z,417.00
2023-10-17T02:22:42.419Z,418.00
2023-10-17T02:23:37.540Z,417.00
2023-10-17T02:24:32.922Z,420.00
2023-10-17T02:25:27.912Z,420.00
2023-10-17T02:26:22.989Z,420.00
2023-10-17T02:27:18.021Z,422.00
2023-10-17T02:28:13.166Z,421.00
2023-10-17T02:29:08.335Z,424.00
2023-10-17T02:30:03.556Z,420.00
2023-10-17T02:30:58.827Z,428.00
2023-10-17T02:31:53.920Z,417.00
2023-10-17T02:32:49.023Z,419.00
2023-10-17T02:33:44.222Z,423.00
2023-10-17T02:34:39.495Z,422.00
2023-10-17T02:35:38.064Z,421.00
2023-10-17T02:36:33.277Z,424.00
2023-10-17T02:37:28.419Z,420.00
2023-10-17T02:38:23.587Z,431.00
2023-10-17T02:39:18.966Z,430.00
2023-10-17T02:40:14.205Z,420.00
2023-10-17T02:41:09.475Z,425.00
2023-10-17T02:42:04.308Z,439.00
2023-10-17T02:42:59.300Z,428.00
2023-10-17T02:43:54.367Z,425.00
2023-10-17T02:44:49.436Z,432.00
2023-10-17T02:45:44.616Z,426.00
2023-10-17T02:46:45.258Z,433.00
2023-10-17T02:47:41.120Z,432.00
2023-10-17T02:48:35.702Z,431.00
2023-10-17T02:49:31.445Z,436.00
2023-10-17T02:50:26.642Z,436.00
2023-10-17T02:51:21.890Z,441.00
2023-10-17T02:52:18.004Z,436.00
2023-10-17T02:53:13.216Z,436.00
2023-10-17T02:54:08.942Z,440.00
2023-10-17T02:55:04.118Z,429.00
2023-10-17T02:55:59.318Z,435.00
2023-10-17T02:56:55.091Z,440.00
2023-10-17T02:57:50.253Z,430.00
2023-10-17T02:58:46.261Z,438.00
2023-10-17T02:59:41.279Z,433.00
2023-10-17T03:00:36.692Z,436.00
2023-10-17T03:01:33.036Z,438.00
2023-10-17T03:02:27.823Z,438.00
2023-10-17T03:03:23.100Z,430.00
2023-10-17T03:04:19.504Z,435.00
2023-10-17T03:05:14.538Z,439.00
2023-10-17T03:06:10.551Z,440.00
2023-10-17T03:07:05.405Z,433.00
2023-10-17T03:08:00.741Z,435.00
2023-10-17T03:08:56.348Z,433.00
2023-10-17T03:09:51.543Z,430.00
2023-10-17T03:10:49.935Z,428.00
2023-10-17T03:11:42.605Z,432.00
2023-10-17T03:12:37.960Z,432.00
2023-10-17T03:13:33.025Z,431.00
2023-10-17T03:14:28.942Z,433.00
2023-10-17T03:15:23.942Z,427.00
2023-10-17T03:16:19.184Z,434.00
2023-10-17T03:17:15.144Z,433.00
2023-10-17T03:18:10.252Z,439.00
2023-10-17T03:19:05.505Z,440.00
2023-10-17T03:20:01.792Z,435.00
2023-10-17T03:20:57.002Z,442.00
2023-10-17T03:21:52.903Z,441.00
2023-10-17T03:22:47.928Z,440.00
2023-10-17T03:23:43.227Z,442.00
2023-10-17T03:24:39.084Z,440.00
2023-10-17T03:25:34.671Z,436.00
2023-10-17T03:26:30.104Z,433.00
2023-10-17T03:27:25.260Z,433.00
2023-10-17T03:28:20.622Z,431.00
2023-10-17T03:29:16.227Z,432.00
2023-10-17T03:30:11.464Z,431.00
2023-10-17T03:31:06.618Z,436.00
2023-10-17T03:32:03.228Z,436.00
2023-10-17T03:32:58.314Z,441.00
2023-10-17T03:33:54.060Z,440.00
2023-10-17T03:34:49.191Z,435.00
2023-10-17T03:35:44.423Z,439.00
2023-10-17T03:36:40.459Z,429.00
2023-10-17T03:37:35.438Z,433.00
2023-10-17T03:38:31.135Z,433.00
2023-10-17T03:39:26.286Z,433.00
2023-10-17T03:40:21.486Z,436.00
2023-10-17T03:41:17.367Z,435.00
2023-10-17T03:42:12.731Z,438.00
2023-10-17T03:43:07.879Z,433.00
2023-10-17T03:44:03.200Z,433.00
2023-10-17T03:44:59.150Z,434.00
2023-10-17T03:45:54.336Z,438.00
2023-10-17T03:46:49.838Z,436.00
2023-10-17T03:47:45.350Z,445.00
2023-10-17T03:48:40.559Z,443.00
2023-10-17T03:49:35.604Z,439.00
2023-10-17T03:50:32.034Z,435.00
2023-10-17T03:51:27.341Z,435.00
2023-10-17T03:52:23.233Z,433.00
2023-10-17T03:53:18.271Z,440.00
2023-10-17T03:54:13.593Z,443.00
2023-10-17T03:55:09.354Z,441.00
2023-10-17T03:56:04.603Z,436.00
2023-10-17T03:57:00.481Z,444.00
2023-10-17T03:57:55.522Z,442.00
2023-10-17T03:58:50.868Z,442.00
2023-10-17T03:59:46.028Z,448.00
2023-10-17T04:00:41.180Z,470.00
2023-10-17T04:01:36.271Z,451.00
2023-10-17T04:02:31.545Z,451.00
2023-10-17T04:03:26.572Z,445.00
2023-10-17T04:04:27.338Z,448.00
2023-10-17T04:05:17.658Z,446.00
2023-10-17T04:06:11.648Z,438.00
2023-10-17T04:07:06.671Z,437.00
2023-10-17T04:08:01.909Z,444.00
2023-10-17T04:08:56.891Z,437.00
2023-10-17T04:09:53.130Z,432.00
2023-10-17T04:10:48.224Z,444.00
2023-10-17T04:11:43.364Z,434.00
2023-10-17T04:12:38.633Z,439.00
2023-10-17T04:13:33.953Z,444.00
2023-10-17T04:14:29.111Z,447.00
2023-10-17T04:15:25.391Z,441.00
2023-10-17T04:16:20.684Z,442.00
2023-10-17T04:17:15.881Z,434.00
2023-10-17T04:18:15.328Z,442.00
2023-10-17T04:19:10.313Z,437.00
2023-10-17T04:20:05.537Z,444.00
2023-10-17T04:21:00.600Z,440.00
2023-10-17T04:22:09.898Z,449.00
2023-10-17T04:22:53.199Z,447.00
2023-10-17T04:23:47.520Z,434.00
2023-10-17T04:24:42.453Z,443.00
2023-10-17T04:25:37.616Z,441.00
2023-10-17T04:26:32.773Z,445.00
2023-10-17T04:27:27.969Z,442.00
2023-10-17T04:28:23.271Z,446.00
2023-10-17T04:29:18.929Z,446.00
2023-10-17T04:30:14.123Z,448.00
2023-10-17T04:31:10.006Z,445.00
2023-10-17T04:32:05.129Z,446.00
2023-10-17T04:33:00.516Z,443.00
2023-10-17T04:33:56.347Z,443.00
2023-10-17T04:34:51.413Z,442.00
2023-10-17T04:35:46.575Z,445.00
2023-10-17T04:36:42.974Z,441.00
2023-10-17T04:37:38.192Z,441.00
2023-10-17T04:38:34.236Z,441.00
2023-10-17T04:39:29.251Z,443.00
2023-10-17T04:40:24.600Z,448.00
2023-10-17T04:41:20.189Z,447.00
2023-10-17T04:42:15.451Z,448.00
2023-10-17T04:43:11.130Z,449.00
2023-10-17T04:44:06.458Z,451.00
2023-10-17T04:45:01.606Z,447.00
2023-10-17T04:45:57.412Z,451.00
2023-10-17T04:46:52.557Z,451.00
2023-10-17T04:47:47.783Z,457.00
2023-10-17T04:48:44.110Z,453.00
2023-10-17T04:49:39.313Z,471.00
2023-10-17T04:50:35.088Z,448.00
2023-10-17T04:51:30.308Z,447.00
2023-10-17T04:52:25.483Z,445.00
2023-10-17T04:53:21.340Z,447.00
2023-10-17T04:54:16.464Z,451.00
2023-10-17T04:55:12.354Z,449.00
2023-10-17T04:56:07.271Z,448.00
2023-10-17T04:57:02.532Z,453.00
2023-10-17T04:57:58.284Z,455.00
2023-10-17T04:58:53.497Z,451.00
2023-10-17T04:59:48.753Z,454.00
2023-10-17T05:00:45.337Z,446.00
2023-10-17T05:01:40.392Z,452.00
2023-10-17T05:02:36.245Z,450.00
2023-10-17T05:03:31.434Z,449.00
2023-10-17T05:04:26.928Z,449.00
2023-10-17T05:05:22.562Z,447.00
2023-10-17T05:06:17.872Z,462.00
2023-10-17T05:07:13.907Z,460.00
2023-10-17T05:08:09.076Z,451.00
2023-10-17T05:09:04.450Z,440.00
2023-10-17T05:10:00.099Z,441.00
2023-10-17T05:10:55.458Z,447.00
2023-10-17T05:11:50.547Z,450.00
2023-10-17T05:12:46.972Z,446.00
2023-10-17T05:13:42.137Z,448.00
2023-10-17T05:14:37.349Z,449.00
2023-10-17T05:15:33.311Z,443.00
2023-10-17T05:16:28.575Z,449.00
2023-10-17T05:17:24.256Z,445.00
2023-10-17T05:18:19.457Z,449.00
2023-10-17T05:19:14.650Z,450.00
2023-10-17T05:20:10.294Z,450.00
2023-10-17T05:21:05.525Z,451.00
2023-10-17T05:22:00.822Z,449.00
2023-10-17T05:22:57.029Z,449.00
2023-10-17T05:23:52.206Z,450.00
2023-10-17T05:24:48.114Z,452.00
2023-10-17T05:25:43.346Z,452.00
2023-10-17T05:26:38.627Z,451.00
2023-10-17T05:27:34.540Z,455.00
2023-10-17T05:28:29.765Z,449.00
2023-10-17T05:29:25.017Z,447.00
2023-10-17T05:30:20.293Z,449.00
2023-10-17T05:31:15.577Z,450.00
2023-10-17T05:32:10.760Z,452.00
2023-10-17T05:33:05.681Z,444.00
2023-10-17T05:34:00.769Z,458.00
2023-10-17T05:34:55.757Z,446.00
2023-10-17T05:35:50.883Z,450.00
2023-10-17T05:36:45.990Z,447.00
2023-10-17T05:37:41.033Z,451.00
2023-10-17T05:38:35.974Z,454.00
2023-10-17T05:39:31.070Z,459.00
2023-10-17T05:40:26.060Z,456.00
2023-10-17T05:41:21.134Z,449.00
2023-10-17T05:42:16.186Z,445.00
2023-10-17T05:43:11.253Z,444.00
2023-10-17T05:44:06.274Z,473.00
2023-10-17T05:45:01.320Z,464.00
2023-10-17T05:45:56.377Z,451.00
2023-10-17T05:46:51.390Z,466.00
2023-10-17T05:47:46.477Z,466.00
2023-10-17T05:48:41.505Z,473.00
2023-10-17T05:49:36.491Z,460.00
2023-10-17T05:50:31.749Z,460.00
2023-10-17T05:51:26.749Z,459.00
2023-10-17T05:52:21.990Z,468.00
2023-10-17T05:53:16.800Z,462.00
2023-10-17T05:54:37.163Z,465.00
2023-10-17T05:56:02.050Z,464.00
2023-10-17T05:56:57.002Z,463.00
2023-10-17T05:57:52.291Z,463.00
2023-10-17T05:58:47.200Z,457.00
2023-10-17T05:59:42.263Z,456.00
2023-10-17T06:00:37.366Z,449.00
2023-10-17T06:01:32.755Z,448.00
2023-10-17T06:02:28.250Z,455.00
2023-10-17T06:03:23.547Z,462.00
2023-10-17T06:04:18.927Z,457.00
2023-10-17T06:05:14.253Z,453.00
2023-10-17T06:06:18.028Z,474.00
2023-10-17T06:07:05.919Z,466.00
2023-10-17T06:08:00.330Z,469.00
2023-10-17T06:08:55.562Z,458.00
2023-10-17T06:09:50.959Z,467.00
2023-10-17T06:10:46.240Z,465.00
2023-10-17T06:11:41.539Z,467.00
2023-10-17T06:12:37.076Z,465.00
2023-10-17T06:13:32.347Z,465.00
2023-10-17T06:14:27.430Z,460.00
2023-10-17T06:15:22.679Z,462.00
2023-10-17T06:16:18.098Z,474.00
2023-10-17T06:17:13.388Z,476.00
2023-10-17T06:18:08.501Z,477.00
2023-10-17T06:19:03.403Z,467.00
2023-10-17T06:19:58.427Z,471.00
2023-10-17T06:20:53.422Z,484.00
2023-10-17T06:21:48.570Z,482.00
2023-10-17T06:22:43.565Z,482.00
2023-10-17T06:23:38.885Z,489.00
2023-10-17T06:24:33.747Z,470.00
2023-10-17T06:25:28.776Z,476.00
2023-10-17T06:26:23.745Z,478.00
2023-10-17T06:27:18.828Z,468.00
2023-10-17T06:28:13.982Z,463.00
2023-10-17T06:29:08.988Z,480.00
2023-10-17T06:30:04.015Z,474.00
2023-10-17T06:30:59.058Z,475.00
2023-10-17T06:31:54.047Z,474.00
2023-10-17T06:32:49.140Z,463.00
2023-10-17T06:33:44.415Z,466.00
2023-10-17T06:34:39.709Z,467.00
2023-10-17T06:35:36.475Z,476.00
2023-10-17T06:36:31.993Z,470.00
2023-10-17T06:37:27.529Z,468.00
2023-10-17T06:38:22.867Z,466.00
2023-10-17T06:39:18.386Z,466.00
2023-10-17T06:40:13.666Z,463.00
2023-10-17T06:41:09.147Z,467.00
2023-10-17T06:42:04.455Z,463.00
2023-10-17T06:42:59.789Z,473.00
2023-10-17T06:43:55.253Z,499.00
2023-10-17T06:44:50.482Z,484.00
2023-10-17T06:45:45.863Z,468.00
2023-10-17T06:46:41.173Z,465.00
2023-10-17T06:47:36.644Z,470.00
2023-10-17T06:48:31.943Z,472.00
2023-10-17T06:49:27.316Z,489.00
2023-10-17T06:50:22.661Z,470.00
2023-10-17T06:51:18.128Z,468.00
2023-10-17T06:52:13.225Z,463.00
2023-10-17T06:53:08.245Z,458.00
2023-10-17T06:54:03.296Z,462.00
2023-10-17T06:54:58.338Z,461.00
2023-10-17T06:55:53.420Z,458.00
2023-10-17T06:56:48.415Z,472.00
2023-10-17T06:57:43.561Z,466.00
2023-10-17T06:58:41.069Z,461.00
2023-10-17T06:59:35.997Z,466.00
2023-10-17T07:00:31.208Z,491.00
2023-10-17T07:01:26.473Z,474.00
2023-10-17T07:02:21.362Z,462.00
2023-10-17T07:03:16.498Z,495.00
2023-10-17T07:04:11.630Z,481.00
2023-10-17T07:05:06.592Z,469.00
2023-10-17T07:06:01.675Z,461.00
2023-10-17T07:06:57.124Z,480.00
2023-10-17T07:07:52.425Z,464.00
2023-10-17T07:08:47.964Z,461.00
2023-10-17T07:09:43.411Z,458.00
2023-10-17T07:10:38.693Z,460.00
2023-10-17T07:11:33.982Z,458.00
2023-10-17T07:12:29.486Z,458.00
2023-10-17T07:13:24.763Z,454.00
2023-10-17T07:14:20.411Z,451.00
2023-10-17T07:15:15.624Z,459.00
2023-10-17T07:16:11.077Z,457.00
2023-10-17T07:17:06.339Z,464.00
2023-10-17T07:18:03.076Z,462.00
2023-10-17T07:18:58.452Z,468.00
2023-10-17T07:19:54.011Z,472.00
2023-10-17T07:20:49.168Z,467.00
2023-10-17T07:21:45.115Z,462.00
2023-10-17T07:22:40.632Z,457.00
2023-10-17T07:23:36.401Z,451.00
2023-10-17T07:24:32.236Z,453.00
2023-10-17T07:25:27.227Z,453.00
2023-10-17T07:26:22.551Z,462.00
2023-10-17T07:27:18.000Z,463.00
2023-10-17T07:28:12.936Z,463.00
2023-10-17T07:29:08.029Z,452.00
2023-10-17T07:30:03.084Z,446.00
2023-10-17T07:30:58.165Z,454.00
2023-10-17T07:31:53.182Z,451.00
2023-10-17T07:32:48.271Z,452.00
2023-10-17T07:33:43.416Z,447.00
2023-10-17T07:34:38.945Z,456.00
2023-10-17T07:35:33.985Z,450.00
2023-10-17T07:36:29.236Z,439.00
2023-10-17T07:37:24.339Z,457.00
2023-10-17T07:38:19.339Z,450.00
2023-10-17T07:39:14.408Z,460.00
2023-10-17T07:40:09.473Z,459.00
2023-10-17T07:41:04.500Z,451.00
2023-10-17T07:41:59.545Z,451.00
2023-10-17T07:42:54.607Z,460.00
2023-10-17T07:43:49.655Z,459.00
2023-10-17T07:44:44.751Z,462.00
2023-10-17T07:45:40.428Z,457.00
2023-10-17T07:46:34.959Z,460.00
2023-10-17T07:47:30.347Z,456.00
2023-10-17T07:48:25.926Z,454.00
2023-10-17T07:49:21.144Z,446.00
2023-10-17T07:50:16.426Z,448.00
2023-10-17T07:51:12.066Z,433.00
2023-10-17T07:52:07.222Z,429.00
2023-10-17T07:53:02.690Z,432.00
2023-10-17T07:53:57.972Z,423.00
2023-10-17T07:54:53.454Z,425.00
2023-10-17T07:55:48.756Z,428.00
2023-10-17T07:56:44.345Z,422.00
2023-10-17T07:57:43.778Z,435.00
2023-10-17T07:58:39.177Z,424.00
2023-10-17T07:59:34.587Z,426.00
2023-10-17T08:00:31.942Z,420.00
2023-10-17T08:01:25.544Z,414.00
2023-10-17T08:02:20.757Z,420.00
2023-10-17T08:03:16.773Z,417.00
2023-10-17T08:04:11.560Z,427.00
2023-10-17T08:05:07.008Z,423.00
2023-10-17T08:06:02.420Z,423.00
2023-10-17T08:06:57.722Z,420.00
2023-10-17T08:07:53.083Z,415.00
2023-10-17T08:08:48.488Z,419.00
2023-10-17T08:09:44.000Z,418.00
2023-10-17T08:10:39.308Z,418.00
2023-10-17T08:11:34.795Z,414.00
2023-10-17T08:12:30.125Z,422.00
2023-10-17T08:13:25.571Z,420.00
2023-10-17T08:14:21.357Z,420.00
2023-10-17T08:15:16.826Z,420.00
2023-10-17T08:16:12.028Z,416.00
2023-10-17T08:18:32.485Z,419.00
2023-10-17T08:19:27.761Z,418.00
2023-10-17T08:20:22.959Z,412.00
2023-10-17T08:21:18.457Z,419.00
2023-10-17T08:22:13.744Z,417.00
2023-10-17T08:23:09.196Z,409.00
2023-10-17T08:24:04.516Z,414.00
2023-10-17T08:24:59.988Z,412.00
2023-10-17T08:25:55.292Z,415.00
2023-10-17T08:26:50.823Z,417.00
2023-10-17T08:27:46.123Z,420.00
2023-10-17T08:28:41.661Z,408.00
2023-10-17T08:29:36.806Z,426.00
2023-10-17T08:30:44.213Z,412.00
2023-10-17T08:31:28.779Z,411.00
2023-10-17T08:32:23.143Z,416.00
2023-10-17T08:33:18.435Z,418.00
2023-10-17T08:34:13.772Z,420.00
2023-10-17T08:35:09.181Z,412.00
2023-10-17T08:36:04.788Z,410.00
2023-10-17T08:36:59.984Z,410.00
2023-10-17T08:37:55.442Z,416.00
2023-10-17T08:38:50.727Z,417.00
2023-10-17T08:39:46.198Z,421.00
2023-10-17T08:40:41.549Z,418.00
2023-10-17T08:41:36.889Z,424.00
2023-10-17T08:42:32.638Z,411.00
2023-10-17T08:43:27.769Z,404.00
2023-10-17T08:44:23.070Z,407.00
2023-10-17T08:45:18.552Z,407.00
2023-10-17T08:46:14.057Z,416.00
2023-10-17T08:47:09.275Z,414.00
2023-10-17T08:48:04.615Z,416.00
2023-10-17T08:49:00.003Z,414.00
2023-10-17T08:49:55.272Z,411.00
2023-10-17T08:50:50.735Z,415.00
2023-10-17T08:51:46.117Z,418.00
2023-10-17T08:52:41.767Z,419.00
2023-10-17T08:53:38.026Z,409.00
2023-10-17T08:54:32.407Z,411.00
2023-10-17T08:55:27.840Z,410.00
2023-10-17T08:56:23.347Z,417.00
2023-10-17T08:57:18.676Z,410.00
2023-10-17T08:58:14.147Z,417.00
2023-10-17T08:59:09.550Z,406.00
2023-10-17T09:00:04.879Z,419.00
2023-10-17T09:01:00.430Z,401.00
2023-10-17T09:01:55.665Z,409.00
2023-10-17T09:02:51.297Z,409.00
2023-10-17T09:03:46.548Z,415.00
2023-10-17T09:04:42.038Z,422.00
2023-10-17T09:05:37.349Z,417.00
2023-10-17T09:06:32.800Z,413.00
2023-10-17T09:07:28.107Z,418.00
2023-10-17T09:08:23.715Z,412.00
2023-10-17T09:09:19.145Z,412.00
2023-10-17T09:10:14.312Z,420.00
2023-10-17T09:11:09.709Z,418.00
2023-10-17T09:12:05.243Z,425.00
2023-10-17T09:13:00.648Z,422.00
2023-10-17T09:13:55.947Z,419.00
2023-10-17T09:14:51.264Z,412.00
2023-10-17T09:15:46.734Z,411.00
2023-10-17T09:16:42.028Z,417.00
2023-10-17T09:17:37.390Z,418.00
2023-10-17T09:18:32.839Z,420.00
2023-10-17T09:19:28.264Z,422.00
2023-10-17T09:20:23.440Z,422.00
2023-10-17T09:21:18.890Z,415.00
2023-10-17T09:22:14.230Z,419.00
2023-10-17T09:23:09.747Z,417.00
2023-10-17T09:24:05.103Z,412.00
2023-10-17T09:25:00.508Z,411.00
2023-10-17T09:25:55.828Z,413.00
2023-10-17T09:26:51.368Z,417.00
2023-10-17T09:27:46.896Z,422.00
2023-10-17T09:28:42.422Z,430.00
2023-10-17T09:29:37.630Z,422.00
2023-10-17T09:30:33.080Z,418.00
2023-10-17T09:31:28.491Z,421.00
2023-10-17T09:32:24.036Z,412.00
2023-10-17T09:33:19.545Z,420.00
2023-10-17T09:34:14.950Z,414.00
2023-10-17T09:35:10.415Z,425.00
2023-10-17T09:36:05.839Z,419.00
2023-10-17T09:37:01.392Z,416.00
2023-10-17T09:37:56.738Z,420.00
2023-10-17T09:38:52.059Z,418.00
2023-10-17T09:39:47.521Z,422.00
2023-10-17T09:40:49.267Z,426.00
2023-10-17T09:41:39.512Z,428.00
2023-10-17T09:42:33.749Z,418.00
2023-10-17T09:43:29.320Z,427.00
2023-10-17T09:44:24.796Z,422.00
2023-10-17T09:46:15.610Z,408.00
2023-10-17T09:47:10.883Z,416.00
2023-10-17T09:48:07.102Z,426.00
2023-10-17T09:49:02.019Z,431.00
2023-10-17T09:49:57.026Z,431.00
2023-10-17T09:50:52.273Z,433.00
2023-10-17T09:51:47.636Z,428.00
2023-10-17T09:52:42.989Z,435.00
2023-10-17T09:53:38.261Z,420.00
2023-10-17T09:54:33.793Z,418.00
2023-10-17T09:55:29.084Z,429.00
2023-10-17T09:56:24.513Z,426.00
2023-10-17T09:57:19.998Z,420.00
2023-10-17T09:58:15.205Z,422.00
2023-10-17T09:59:10.766Z,431.00
2023-10-17T10:00:05.987Z,423.00
2023-10-17T10:01:01.326Z,419.00
2023-10-17T10:01:56.876Z,416.00
2023-10-17T10:03:01.590Z,417.00
2023-10-17T10:03:48.850Z,413.00
2023-10-17T10:04:43.300Z,417.00
2023-10-17T10:05:38.773Z,423.00
2023-10-17T10:06:34.758Z,429.00
2023-10-17T10:07:29.536Z,427.00
2023-10-17T10:08:24.899Z,416.00
2023-10-17T10:09:20.614Z,422.00
2023-10-17T10:10:15.969Z,421.00
2023-10-17T10:11:11.344Z,422.00
2023-10-17T10:12:06.808Z,417.00
2023-10-17T10:13:02.346Z,420.00
2023-10-17T10:13:57.696Z,433.00
2023-10-17T10:14:53.294Z,431.00
2023-10-17T10:15:48.712Z,428.00
2023-10-17T10:16:44.108Z,436.00
2023-10-17T10:17:39.449Z,426.00
2023-10-17T10:18:34.892Z,424.00
2023-10-17T10:19:30.399Z,421.00
2023-10-17T10:20:25.873Z,418.00
2023-10-17T10:21:21.292Z,429.00
2023-10-17T10:22:16.680Z,430.00
2023-10-17T10:23:12.192Z,424.00
2023-10-17T10:24:07.459Z,419.00
2023-10-17T10:25:02.834Z,421.00
2023-10-17T10:25:58.248Z,424.00
2023-10-17T10:26:53.583Z,424.00
2023-10-17T10:27:48.969Z,424.00
2023-10-17T10:28:44.243Z,423.00
2023-10-17T10:29:39.730Z,418.00
2023-10-17T10:30:35.089Z,425.00
2023-10-17T10:31:30.515Z,421.00
2023-10-17T10:32:25.909Z,425.00
2023-10-17T10:33:21.401Z,427.00
2023-10-17T10:34:16.596Z,424.00
2023-10-17T10:35:12.113Z,422.00
2023-10-17T10:36:07.433Z,426.00
2023-10-17T10:37:02.914Z,419.00
2023-10-17T10:37:58.256Z,421.00
2023-10-17T10:38:53.723Z,420.00
2023-10-17T10:39:49.059Z,422.00
2023-10-17T10:40:46.415Z,420.00
2023-10-17T10:41:39.851Z,420.00
2023-10-17T10:42:35.363Z,419.00
2023-10-17T10:43:30.847Z,424.00
2023-10-17T10:44:26.363Z,427.00
2023-10-17T10:45:21.917Z,430.00
2023-10-17T10:46:19.494Z,429.00
2023-10-17T10:47:12.683Z,426.00
2023-10-17T10:48:08.126Z,426.00
2023-10-17T10:49:03.605Z,421.00
2023-10-17T10:49:59.139Z,424.00
2023-10-17T10:50:54.347Z,418.00
2023-10-17T10:51:49.779Z,418.00
2023-10-17T10:52:45.116Z,425.00
2023-10-17T10:53:40.780Z,419.00
2023-10-17T10:54:36.152Z,417.00
2023-10-17T10:55:31.768Z,422.00
2023-10-17T10:56:27.109Z,422.00
2023-10-17T10:57:22.670Z,426.00
2023-10-17T10:58:17.989Z,420.00
2023-10-17T10:59:13.665Z,421.00
2023-10-17T11:00:09.087Z,420.00
2023-10-17T11:01:04.609Z,424.00
2023-10-17T11:01:59.912Z,423.00
2023-10-17T11:02:55.332Z,427.00
2023-10-17T11:03:50.819Z,427.00
2023-10-17T11:04:46.236Z,425.00
2023-10-17T11:05:41.789Z,438.00
2023-10-17T11:06:37.287Z,429.00
2023-10-17T11:07:32.676Z,427.00
2023-10-17T11:08:28.112Z,425.00
2023-10-17T11:09:23.532Z,430.00
2023-10-17T11:10:19.148Z,430.00
2023-10-17T11:11:14.683Z,431.00
2023-10-17T11:12:09.920Z,435.00
2023-10-17T11:13:05.472Z,424.00
2023-10-17T11:14:01.582Z,428.00
2023-10-17T11:15:05.110Z,426.00
2023-10-17T11:15:52.797Z,417.00
2023-10-17T11:16:46.966Z,417.00
2023-10-17T11:17:42.510Z,427.00
2023-10-17T11:18:37.894Z,422.00
2023-10-17T11:19:33.397Z,426.00
2023-10-17T11:20:28.745Z,420.00
2023-10-17T11:21:24.533Z,422.00
2023-10-17T11:22:19.665Z,422.00
2023-10-17T11:23:15.158Z,416.00
2023-10-17T11:24:10.548Z,420.00
2023-10-17T11:25:06.115Z,423.00
2023-10-17T11:26:07.404Z,428.00
2023-10-17T11:26:58.013Z,416.00
2023-10-17T11:27:52.420Z,412.00
2023-10-17T11:28:48.134Z,428.00
2023-10-17T11:29:43.464Z,430.00
2023-10-17T11:30:39.046Z,428.00
2023-10-17T11:31:34.533Z,420.00
2023-10-17T11:32:29.925Z,413.00
2023-10-17T11:33:25.298Z,423.00
2023-10-17T11:34:20.917Z,421.00